createdAt,value
2022-11-05T00:02:32.344Z,0.90
2022-11-05T00:05:34.509Z,1.00
2022-11-05T00:08:23.837Z,1.50
2022-11-05T00:10:50.995Z,0.70
2022-11-05T00:13:36.554Z,0.90
2022-11-05T00:16:22.546Z,0.80
2022-11-05T00:19:06.814Z,1.00
2022-11-05T00:21:54.520Z,1.00
2022-11-05T00:24:41.347Z,1.90
2022-11-05T00:27:09.634Z,1.10
2022-11-05T00:29:36.537Z,1.20
2022-11-05T00:32:03.678Z,1.50
2022-11-05T00:34:30.559Z,1.10
2022-11-05T00:36:57.308Z,1.50
2022-11-05T00:39:24.237Z,1.80
2022-11-05T00:42:09.674Z,1.50
2022-11-05T00:44:55.231Z,1.30
2022-11-05T00:47:40.983Z,3.50
2022-11-05T00:50:10.818Z,1.60
2022-11-05T00:53:07.623Z,2.00
2022-11-05T00:55:39.424Z,1.70
2022-11-05T00:58:10.598Z,2.10
2022-11-05T01:00:41.688Z,2.10
2022-11-05T01:03:14.345Z,2.00
2022-11-05T01:05:48.431Z,1.90
2022-11-05T01:08:17.886Z,1.60
2022-11-05T01:10:48.852Z,1.90
2022-11-05T01:13:27.048Z,2.40
2022-11-05T01:15:56.145Z,2.30
2022-11-05T01:18:24.802Z,2.50
2022-11-05T01:20:51.684Z,2.50
2022-11-05T01:23:18.985Z,2.10
2022-11-05T01:25:46.034Z,2.80
2022-11-05T01:28:12.991Z,2.50
2022-11-05T01:30:40.140Z,2.00
2022-11-05T01:33:08.022Z,2.10
2022-11-05T01:38:01.710Z,2.80
2022-11-05T01:40:28.581Z,1.80
2022-11-05T01:42:55.391Z,1.80
2022-11-05T01:45:22.272Z,2.00
2022-11-05T01:47:54.378Z,1.80
2022-11-05T01:50:40.535Z,1.70
2022-11-05T01:53:25.599Z,1.50
2022-11-05T01:56:16.659Z,1.40
2022-11-05T01:58:55.790Z,0.90
2022-11-05T02:01:23.425Z,1.30
2022-11-05T02:03:57.973Z,1.40
2022-11-05T02:06:28.983Z,1.10
2022-11-05T02:09:10.423Z,1.20
2022-11-05T02:11:37.191Z,1.10
2022-11-05T02:14:04.901Z,1.30
2022-11-05T02:16:44.258Z,1.60
2022-11-05T02:19:38.790Z,1.40
2022-11-05T02:22:27.771Z,1.30
2022-11-05T02:25:31.804Z,1.00
2022-11-05T02:28:49.702Z,1.00
2022-11-05T02:31:40.651Z,1.10
2022-11-05T02:34:55.011Z,0.70
2022-11-05T02:37:41.716Z,1.10
2022-11-05T02:40:26.277Z,1.10
2022-11-05T02:43:59.982Z,0.80
2022-11-05T02:47:06.869Z,1.00
2022-11-05T02:50:08.008Z,0.90
2022-11-05T02:52:51.745Z,0.70
2022-11-05T02:55:49.310Z,0.70
2022-11-05T03:00:45.819Z,0.70
2022-11-05T03:03:43.037Z,0.90
2022-11-05T03:06:34.036Z,0.80
2022-11-05T03:09:43.769Z,0.90
2022-11-05T03:12:57.143Z,1.20
2022-11-05T03:15:50.871Z,1.30
2022-11-05T03:18:48.761Z,0.90
2022-11-05T03:21:23.282Z,1.20
2022-11-05T03:23:57.061Z,0.80
2022-11-05T03:26:38.036Z,0.90
2022-11-05T03:29:28.643Z,0.90
2022-11-05T03:32:01.971Z,1.10
2022-11-05T03:34:45.575Z,1.30
2022-11-05T03:37:13.844Z,1.40
2022-11-05T03:39:51.484Z,1.10
2022-11-05T03:42:26.950Z,1.10
2022-11-05T03:45:00.315Z,1.20
2022-11-05T03:47:38.288Z,1.30
2022-11-05T03:52:59.250Z,1.40
2022-11-05T03:56:00.327Z,1.40
2022-11-05T03:58:29.161Z,1.80
2022-11-05T04:00:56.272Z,1.40
2022-11-05T04:03:23.137Z,2.00
2022-11-05T04:06:13.095Z,3.00
2022-11-05T04:08:59.668Z,1.50
2022-11-05T04:11:45.309Z,2.00
2022-11-05T04:14:12.151Z,1.10
2022-11-05T04:16:57.834Z,1.00
2022-11-05T04:19:43.243Z,1.00
2022-11-05T04:22:28.955Z,0.80
2022-11-05T04:24:55.750Z,1.20
2022-11-05T04:27:22.679Z,1.40
2022-11-05T04:30:08.307Z,1.10
2022-11-05T04:32:35.093Z,1.70
2022-11-05T04:35:01.867Z,1.70
2022-11-05T04:37:28.788Z,1.50
2022-11-05T04:39:55.733Z,1.40
2022-11-05T04:42:22.678Z,1.60
2022-11-05T04:44:49.523Z,1.30
2022-11-05T04:47:16.327Z,1.40
2022-11-05T04:49:43.205Z,1.40
2022-11-05T04:52:10.045Z,2.50
2022-11-05T04:54:36.888Z,1.60
2022-11-05T04:57:03.851Z,2.00
2022-11-05T04:59:30.679Z,2.30
2022-11-05T05:01:57.513Z,1.80
2022-11-05T05:04:24.671Z,1.60
2022-11-05T05:06:51.471Z,1.40
2022-11-05T05:09:18.455Z,1.60
2022-11-05T05:11:45.330Z,1.70
2022-11-05T05:14:12.652Z,2.00
2022-11-05T05:16:39.597Z,4.50
2022-11-05T05:19:06.426Z,3.60
2022-11-05T05:21:39.403Z,5.70
2022-11-05T05:24:17.069Z,13.50
2022-11-05T05:26:50.079Z,8.10
2022-11-05T05:29:18.408Z,3.70
2022-11-05T05:31:45.749Z,2.40
2022-11-05T05:34:14.369Z,2.60
2022-11-05T05:36:41.470Z,2.70
2022-11-05T05:39:11.114Z,2.80
2022-11-05T05:41:38.381Z,4.30
2022-11-05T05:44:06.552Z,4.50
2022-11-05T05:46:33.598Z,2.40
2022-11-05T05:49:00.481Z,3.10
2022-11-05T05:51:27.393Z,2.60
2022-11-05T05:53:55.021Z,2.10
2022-11-05T05:56:22.253Z,2.50
2022-11-05T05:58:49.102Z,2.20
2022-11-05T06:01:19.545Z,4.10
2022-11-05T06:03:49.024Z,6.20
2022-11-05T06:06:21.311Z,5.90
2022-11-05T06:08:49.199Z,2.80
2022-11-05T06:11:16.585Z,2.30
2022-11-05T06:13:43.559Z,2.10
2022-11-05T06:16:11.285Z,2.10
2022-11-05T06:18:38.463Z,1.80
2022-11-05T06:21:12.073Z,2.00
2022-11-05T06:23:41.945Z,2.30
2022-11-05T06:26:18.522Z,2.20
2022-11-05T06:28:46.485Z,2.60
2022-11-05T06:31:15.043Z,2.20
2022-11-05T06:33:41.954Z,2.00
2022-11-05T06:36:15.002Z,2.40
2022-11-05T06:38:42.214Z,2.80
2022-11-05T06:41:10.673Z,3.00
2022-11-05T06:43:38.905Z,3.30
2022-11-05T06:46:06.524Z,3.00
2022-11-05T06:48:33.905Z,2.90
2022-11-05T06:51:00.974Z,3.30
2022-11-05T06:53:28.464Z,2.70
2022-11-05T06:55:55.450Z,2.80
2022-11-05T06:58:22.558Z,2.90
2022-11-05T07:00:49.503Z,3.80
2022-11-05T07:03:16.447Z,3.70
2022-11-05T07:05:49.491Z,4.00
2022-11-05T07:08:17.239Z,4.30
2022-11-05T07:10:44.080Z,4.10
2022-11-05T07:13:11.452Z,4.60
2022-11-05T07:15:38.565Z,4.40
2022-11-05T07:18:07.654Z,4.10
2022-11-05T07:20:35.705Z,5.00
2022-11-05T07:23:02.738Z,4.20
2022-11-05T07:25:32.363Z,4.60
2022-11-05T07:28:00.039Z,4.10
2022-11-05T07:30:27.761Z,4.20
2022-11-05T07:32:55.113Z,3.90
2022-11-05T07:35:22.194Z,3.60
2022-11-05T07:37:54.079Z,3.80
2022-11-05T07:40:24.559Z,3.90
2022-11-05T07:42:58.030Z,3.00
2022-11-05T07:45:26.558Z,3.00
2022-11-05T07:48:11.545Z,3.60
2022-11-05T07:50:38.473Z,4.20
2022-11-05T07:53:14.835Z,4.10
2022-11-05T07:55:42.807Z,4.40
2022-11-05T07:58:11.387Z,5.10
2022-11-05T08:00:38.976Z,5.10
2022-11-05T08:03:15.358Z,4.90
2022-11-05T08:05:47.177Z,4.10
2022-11-05T08:08:18.375Z,5.20
2022-11-05T08:10:46.537Z,5.50
2022-11-05T08:13:15.161Z,4.80
2022-11-05T08:15:43.381Z,5.40
2022-11-05T08:20:46.831Z,6.70
2022-11-05T08:23:14.552Z,5.40
2022-11-05T08:28:13.038Z,6.20
2022-11-05T08:30:40.171Z,6.50
2022-11-05T08:33:11.208Z,5.60
2022-11-05T08:35:40.179Z,5.60
2022-11-05T08:38:10.803Z,6.00
2022-11-05T08:40:38.195Z,6.80
2022-11-05T08:43:08.022Z,6.90
2022-11-05T08:45:38.211Z,5.60
2022-11-05T08:48:08.714Z,5.80
2022-11-05T08:50:37.366Z,5.80
2022-11-05T08:53:06.020Z,5.90
2022-11-05T08:55:33.580Z,5.70
2022-11-05T08:58:04.106Z,6.50
2022-11-05T09:00:36.776Z,5.60
2022-11-05T09:03:07.309Z,5.40
2022-11-05T09:05:38.051Z,5.60
2022-11-05T09:08:12.291Z,5.20
2022-11-05T09:10:40.849Z,5.00
2022-11-05T09:13:13.077Z,6.00
2022-11-05T09:15:43.998Z,6.00
2022-11-05T09:18:14.157Z,5.90
2022-11-05T09:20:41.603Z,6.10
2022-11-05T09:23:11.934Z,5.80
2022-11-05T09:25:39.101Z,6.30
2022-11-05T09:28:13.390Z,5.40
2022-11-05T09:30:46.828Z,5.60
2022-11-05T09:33:15.149Z,5.30
2022-11-05T09:35:42.870Z,7.00
2022-11-05T09:38:10.927Z,6.00
2022-11-05T09:40:47.900Z,5.90
2022-11-05T09:43:23.266Z,5.70
2022-11-05T09:45:59.758Z,5.80
2022-11-05T09:48:32.802Z,5.10
2022-11-05T09:51:00.059Z,4.70
2022-11-05T09:53:27.920Z,4.70
2022-11-05T09:55:59.791Z,4.00
2022-11-05T09:59:04.914Z,5.50
2022-11-05T10:01:38.420Z,5.60
2022-11-05T10:04:19.905Z,5.70
2022-11-05T10:06:57.896Z,5.80
2022-11-05T10:09:48.041Z,5.60
2022-11-05T10:12:24.463Z,5.60
2022-11-05T10:15:26.047Z,6.00
2022-11-05T10:18:27.166Z,7.10
2022-11-05T10:20:54.623Z,5.40
2022-11-05T10:23:23.450Z,6.50
2022-11-05T10:26:05.637Z,6.90
2022-11-05T10:28:34.925Z,7.50
2022-11-05T10:31:07.298Z,7.30
2022-11-05T10:33:56.269Z,7.80
2022-11-05T10:36:23.702Z,7.90
2022-11-05T10:38:51.769Z,8.50
2022-11-05T10:44:49.964Z,7.30
2022-11-05T10:47:43.641Z,7.70
2022-11-05T10:50:19.972Z,9.00
2022-11-05T10:52:58.034Z,9.20
2022-11-05T10:55:29.403Z,8.70
2022-11-05T10:58:29.143Z,9.20
2022-11-05T11:00:55.888Z,9.80
2022-11-05T11:03:51.273Z,9.50
2022-11-05T11:06:29.841Z,9.90
2022-11-05T11:09:01.422Z,9.40
2022-11-05T11:11:59.572Z,8.60
2022-11-05T11:14:27.714Z,8.90
2022-11-05T11:16:57.694Z,8.60
2022-11-05T11:19:33.819Z,9.50
2022-11-05T11:22:03.571Z,10.90
2022-11-05T11:24:38.356Z,9.30
2022-11-05T11:27:13.235Z,9.20
2022-11-05T11:29:49.142Z,9.70
2022-11-05T11:32:21.307Z,10.30
2022-11-05T11:34:54.539Z,9.70
2022-11-05T11:37:41.848Z,9.80
2022-11-05T11:40:24.198Z,9.40
2022-11-05T11:43:00.494Z,10.40
2022-11-05T11:45:45.441Z,9.20
2022-11-05T11:48:28.988Z,9.60
2022-11-05T11:50:58.550Z,9.60
2022-11-05T11:53:33.437Z,8.90
2022-11-05T11:56:12.172Z,10.10
2022-11-05T11:58:45.019Z,10.10
2022-11-05T12:01:42.676Z,10.60
2022-11-05T12:04:34.125Z,8.60
2022-11-05T12:07:18.575Z,8.90
2022-11-05T12:10:22.609Z,8.50
2022-11-05T12:13:20.981Z,10.10
2022-11-05T12:16:11.159Z,7.90
2022-11-05T12:18:59.623Z,9.00
2022-11-05T12:22:19.406Z,10.10
2022-11-05T12:25:14.557Z,9.50
2022-11-05T12:28:01.832Z,10.10
2022-11-05T12:30:39.518Z,9.90
2022-11-05T12:36:03.376Z,9.70
2022-11-05T12:39:28.829Z,9.20
2022-11-05T12:42:23.097Z,10.20
2022-11-05T12:44:59.679Z,10.30
2022-11-05T12:48:02.672Z,10.80
2022-11-05T12:51:14.350Z,11.10
2022-11-05T12:54:32.247Z,13.10
2022-11-05T12:57:03.814Z,11.10
2022-11-05T12:59:52.031Z,11.30
2022-11-05T13:02:34.153Z,11.70
2022-11-05T13:05:36.574Z,11.00
2022-11-05T13:08:14.986Z,13.40
2022-11-05T13:11:00.467Z,13.00
2022-11-05T13:13:42.356Z,13.90
2022-11-05T13:16:25.118Z,13.50
2022-11-05T13:19:05.023Z,14.60
2022-11-05T13:21:34.528Z,15.00
2022-11-05T13:24:39.361Z,13.40
2022-11-05T13:27:41.572Z,13.60
2022-11-05T13:30:38.310Z,13.00
2022-11-05T13:33:36.547Z,12.60
2022-11-05T13:36:30.974Z,13.20
2022-11-05T13:39:22.875Z,13.70
2022-11-05T13:42:40.300Z,14.70
2022-11-05T13:45:32.059Z,13.30
2022-11-05T13:48:32.675Z,12.90
2022-11-05T13:51:19.251Z,13.30
2022-11-05T13:54:01.101Z,14.40
2022-11-05T13:56:40.687Z,13.60
2022-11-05T13:59:35.716Z,14.50
2022-11-05T14:02:33.461Z,14.30
2022-11-05T14:05:02.571Z,12.70
2022-11-05T14:07:34.418Z,13.40
2022-11-05T14:10:14.411Z,13.30
2022-11-05T14:12:48.902Z,14.10
2022-11-05T14:15:15.742Z,14.70
2022-11-05T14:18:24.054Z,14.20
2022-11-05T14:21:00.697Z,14.50
2022-11-05T14:23:50.915Z,14.30
2022-11-05T14:26:31.552Z,13.20
2022-11-05T14:29:04.112Z,12.80
2022-11-05T14:32:07.385Z,12.80
2022-11-05T14:34:44.481Z,12.00
2022-11-05T14:37:11.197Z,11.70
2022-11-05T14:39:40.025Z,14.60
2022-11-05T14:42:29.777Z,12.90
2022-11-05T14:45:28.943Z,14.20
2022-11-05T14:48:00.777Z,15.20
2022-11-05T14:50:42.518Z,12.90
2022-11-05T14:53:38.727Z,12.20
2022-11-05T14:56:14.666Z,11.60
2022-11-05T14:58:44.269Z,12.50
2022-11-05T15:01:13.947Z,12.70
2022-11-05T15:03:45.881Z,13.80
2022-11-05T15:06:35.782Z,14.20
2022-11-05T15:09:42.722Z,11.70
2022-11-05T15:12:49.270Z,12.40
2022-11-05T15:15:21.293Z,11.50
2022-11-05T15:17:58.445Z,11.90
2022-11-05T15:20:40.127Z,12.50
2022-11-05T15:23:14.815Z,12.50
2022-11-05T15:25:53.409Z,12.70
2022-11-05T15:28:26.190Z,14.10
2022-11-05T15:31:04.236Z,13.40
2022-11-05T15:33:32.724Z,12.40
2022-11-05T15:36:28.024Z,12.20
2022-11-05T15:39:27.430Z,11.40
2022-11-05T15:41:43.414Z,12.50
2022-11-05T15:44:28.494Z,15.70
2022-11-05T15:47:18.724Z,13.10
2022-11-05T15:50:02.155Z,13.20
2022-11-05T15:52:36.632Z,12.60
2022-11-05T15:55:12.961Z,13.40
2022-11-05T15:58:06.907Z,11.90
2022-11-05T16:00:36.816Z,12.60
2022-11-05T16:03:28.991Z,13.80
2022-11-05T16:05:56.416Z,13.80
2022-11-05T16:08:30.191Z,12.20
2022-11-05T16:11:01.118Z,12.80
2022-11-05T16:13:42.047Z,13.30
2022-11-05T16:16:15.010Z,9.70
2022-11-05T16:18:43.797Z,13.80
2022-11-05T16:21:12.256Z,13.70
2022-11-05T16:23:54.274Z,12.90
2022-11-05T16:29:37.131Z,11.70
2022-11-05T16:32:17.787Z,10.90
2022-11-05T16:34:52.911Z,13.20
2022-11-05T16:37:23.932Z,13.60
2022-11-05T16:39:51.757Z,13.10
2022-11-05T16:42:27.098Z,15.10
2022-11-05T16:44:55.439Z,15.30
2022-11-05T16:47:23.343Z,12.10
2022-11-05T16:49:51.086Z,12.90
2022-11-05T16:52:18.321Z,12.00
2022-11-05T16:54:45.162Z,14.60
2022-11-05T16:57:27.189Z,12.70
2022-11-05T16:59:55.706Z,14.30
2022-11-05T17:02:23.164Z,14.60
2022-11-05T17:04:50.159Z,13.80
2022-11-05T17:07:17.281Z,13.90
2022-11-05T17:09:44.690Z,15.30
2022-11-05T17:12:13.783Z,15.00
2022-11-05T17:14:41.765Z,13.50
2022-11-05T17:19:36.215Z,15.00
2022-11-05T17:22:03.041Z,15.00
2022-11-05T17:24:30.412Z,15.10
2022-11-05T17:26:57.255Z,14.30
2022-11-05T17:29:24.410Z,14.40
2022-11-05T17:31:51.738Z,14.50
2022-11-05T17:34:19.113Z,14.70
2022-11-05T17:36:46.128Z,14.50
2022-11-05T17:39:13.902Z,14.10
2022-11-05T17:41:41.057Z,14.20
2022-11-05T17:44:12.350Z,13.80
2022-11-05T17:46:39.312Z,11.90
2022-11-05T17:49:06.439Z,14.10
2022-11-05T17:51:35.125Z,14.80
2022-11-05T17:54:02.033Z,15.30
2022-11-05T17:56:34.469Z,15.10
2022-11-05T17:59:03.787Z,14.00
2022-11-05T18:01:35.730Z,15.70
2022-11-05T18:04:08.702Z,13.60
2022-11-05T18:06:41.052Z,13.60
2022-11-05T18:09:10.108Z,13.10
2022-11-05T18:11:38.199Z,13.80
2022-11-05T18:14:05.868Z,14.40
2022-11-05T18:16:34.695Z,15.30
2022-11-05T18:19:01.627Z,13.40
2022-11-05T18:21:28.540Z,16.00
2022-11-05T18:23:55.586Z,14.10
2022-11-05T18:26:22.665Z,14.00
2022-11-05T18:28:49.631Z,14.10
2022-11-05T18:31:22.773Z,13.30
2022-11-05T18:33:55.063Z,12.90
2022-11-05T18:36:25.987Z,14.00
2022-11-05T18:38:54.176Z,13.80
2022-11-05T18:41:22.018Z,14.50
2022-11-05T18:43:49.373Z,15.40
2022-11-05T18:46:43.043Z,16.50
2022-11-05T18:49:05.909Z,13.90
2022-11-05T18:51:33.348Z,12.60
2022-11-05T18:54:00.742Z,12.30
2022-11-05T18:56:27.503Z,12.90
2022-11-05T18:59:14.850Z,13.30
2022-11-05T19:01:43.153Z,12.30
2022-11-05T19:04:10.403Z,13.20
2022-11-05T19:06:38.587Z,13.00
2022-11-05T19:09:08.929Z,12.50
2022-11-05T19:11:36.630Z,11.30
2022-11-05T19:14:03.460Z,10.20
2022-11-05T19:16:31.908Z,10.40
2022-11-05T19:19:04.665Z,9.40
2022-11-05T19:21:32.863Z,9.80
2022-11-05T19:24:02.645Z,9.80
2022-11-05T19:26:31.015Z,9.60
2022-11-05T19:29:03.210Z,9.00
2022-11-05T19:31:31.936Z,8.90
2022-11-05T19:33:59.539Z,9.10
2022-11-05T19:36:26.373Z,7.50
2022-11-05T19:39:00.108Z,8.30
2022-11-05T19:41:28.254Z,7.00
2022-11-05T19:43:55.609Z,7.60
2022-11-05T19:46:24.210Z,7.20
2022-11-05T19:48:51.805Z,7.80
2022-11-05T19:51:30.930Z,7.20
2022-11-05T19:54:01.001Z,7.40
2022-11-05T19:56:36.132Z,7.40
2022-11-05T19:59:05.830Z,8.30
2022-11-05T20:01:36.046Z,5.30
2022-11-05T20:04:04.860Z,5.40
2022-11-05T20:06:38.815Z,6.00
2022-11-05T20:09:27.396Z,6.70
2022-11-05T20:11:56.525Z,6.20
2022-11-05T20:14:26.193Z,6.30
2022-11-05T20:16:53.954Z,6.10
2022-11-05T20:19:23.223Z,6.50
2022-11-05T20:21:50.264Z,6.00
2022-11-05T20:24:24.878Z,6.10
2022-11-05T20:26:56.674Z,5.70
2022-11-05T20:29:30.524Z,5.60
2022-11-05T20:32:02.292Z,6.70
2022-11-05T20:34:31.273Z,6.00
2022-11-05T20:36:58.259Z,6.10
2022-11-05T20:39:25.113Z,6.10
2022-11-05T20:41:52.931Z,6.00
2022-11-05T20:44:20.275Z,6.70
2022-11-05T20:46:47.090Z,6.60
2022-11-05T20:49:14.064Z,5.80
2022-11-05T20:51:41.628Z,6.10
2022-11-05T20:54:09.719Z,6.30
2022-11-05T20:56:36.582Z,6.30
2022-11-05T20:59:05.548Z,6.10
2022-11-05T21:01:34.647Z,6.70
2022-11-05T21:04:03.310Z,7.00
2022-11-05T21:06:30.603Z,6.40
2022-11-05T21:08:57.515Z,6.10
2022-11-05T21:11:24.663Z,6.20
2022-11-05T21:13:51.601Z,6.70
2022-11-05T21:16:20.091Z,6.70
2022-11-05T21:18:47.989Z,7.60
2022-11-05T21:21:18.676Z,6.90
2022-11-05T21:23:45.792Z,7.10
2022-11-05T21:26:15.426Z,7.40
2022-11-05T21:28:43.130Z,7.60
2022-11-05T21:31:11.069Z,6.00
2022-11-05T21:36:11.937Z,6.60
2022-11-05T21:38:40.204Z,6.90
2022-11-05T21:41:08.588Z,6.20
2022-11-05T21:43:37.787Z,8.30
2022-11-05T21:46:05.067Z,7.00
2022-11-05T21:48:32.514Z,8.20
2022-11-05T21:51:18.436Z,8.10
2022-11-05T21:54:05.181Z,6.60
2022-11-05T21:56:51.277Z,7.90
2022-11-05T21:59:40.834Z,6.40
2022-11-05T22:02:11.327Z,6.30
2022-11-05T22:04:42.130Z,6.20
2022-11-05T22:07:11.732Z,7.40
2022-11-05T22:09:39.207Z,6.80
2022-11-05T22:12:06.605Z,9.20
2022-11-05T22:14:34.086Z,8.40
2022-11-05T22:17:01.748Z,6.70
2022-11-05T22:19:29.313Z,7.50
2022-11-05T22:21:56.143Z,6.10
2022-11-05T22:24:24.254Z,7.70
2022-11-05T22:26:51.387Z,6.40
2022-11-05T22:29:18.217Z,6.40
2022-11-05T22:31:45.360Z,7.10
2022-11-05T22:34:12.714Z,6.50
2022-11-05T22:36:39.848Z,6.40
2022-11-05T22:39:07.627Z,7.50
2022-11-05T22:41:34.763Z,7.50
2022-11-05T22:44:03.374Z,7.00
2022-11-05T22:46:31.463Z,6.90
2022-11-05T22:53:56.653Z,7.30
2022-11-05T22:56:26.789Z,6.90
2022-11-05T22:58:54.832Z,8.30
2022-11-05T23:03:54.327Z,8.10
2022-11-05T23:06:46.495Z,8.60
2022-11-05T23:09:40.288Z,9.20
2022-11-05T23:12:27.219Z,8.50
2022-11-05T23:14:56.585Z,10.10
2022-11-05T23:17:42.912Z,11.40
2022-11-05T23:20:39.265Z,9.50
2022-11-05T23:23:32.188Z,10.20
2022-11-05T23:26:20.534Z,13.10
2022-11-05T23:28:47.582Z,16.30
2022-11-05T23:31:33.162Z,13.00
2022-11-05T23:33:59.953Z,12.80
2022-11-05T23:36:45.492Z,13.20
2022-11-05T23:39:12.429Z,9.00
2022-11-05T23:41:58.222Z,12.50
2022-11-05T23:44:43.694Z,9.80
2022-11-05T23:47:29.379Z,9.00
2022-11-05T23:49:56.213Z,8.50
2022-11-05T23:52:23.009Z,10.60
2022-11-05T23:54:50.151Z,10.30
2022-11-05T23:57:17.009Z,10.70
2022-11-05T23:59:43.824Z,11.90
